sensor_id;sensor_type;location;lat;lon;timestamp;P1;durP1;ratioP1;P2;durP2;ratioP2
45848;SDS011;31567;54.600;9.842;2023-02-28T00:02:46;4.13;;;3.00;;
45848;SDS011;31567;54.600;9.842;2023-02-28T00:06:26;5.68;;;2.78;;
45848;SDS011;31567;54.600;9.842;2023-02-28T00:10:07;4.82;;;3.35;;
45848;SDS011;31567;54.600;9.842;2023-02-28T00:13:48;4.97;;;3.30;;
45848;SDS011;31567;54.600;9.842;2023-02-28T00:17:28;4.50;;;4.00;;
45848;SDS011;31567;54.600;9.842;2023-02-28T00:21:08;5.03;;;3.65;;
45848;SDS011;31567;54.600;9.842;2023-02-28T00:24:47;4.10;;;3.70;;
45848;SDS011;31567;54.600;9.842;2023-02-28T00:28:27;6.00;;;4.13;;
45848;SDS011;31567;54.600;9.842;2023-02-28T00:32:07;8.65;;;4.55;;
45848;SDS011;31567;54.600;9.842;2023-02-28T00:35:46;6.35;;;4.38;;
45848;SDS011;31567;54.600;9.842;2023-02-28T00:39:27;6.38;;;4.65;;
45848;SDS011;31567;54.600;9.842;2023-02-28T00:43:06;8.77;;;5.03;;
45848;SDS011;31567;54.600;9.842;2023-02-28T00:46:46;11.32;;;5.03;;
45848;SDS011;31567;54.600;9.842;2023-02-28T00:50:26;10.65;;;5.35;;
45848;SDS011;31567;54.600;9.842;2023-02-28T00:54:05;10.55;;;5.72;;
45848;SDS011;31567;54.600;9.842;2023-02-28T00:57:45;11.40;;;5.95;;
45848;SDS011;31567;54.600;9.842;2023-02-28T01:01:24;8.50;;;5.63;;
45848;SDS011;31567;54.600;9.842;2023-02-28T01:05:04;12.35;;;6.05;;
45848;SDS011;31567;54.600;9.842;2023-02-28T01:08:44;12.25;;;6.68;;
45848;SDS011;31567;54.600;9.842;2023-02-28T01:12:23;11.35;;;6.20;;
45848;SDS011;31567;54.600;9.842;2023-02-28T01:16:03;12.43;;;7.63;;
45848;SDS011;31567;54.600;9.842;2023-02-28T01:19:43;11.23;;;6.57;;
45848;SDS011;31567;54.600;9.842;2023-02-28T01:23:23;11.95;;;7.35;;
45848;SDS011;31567;54.600;9.842;2023-02-28T01:27:02;12.45;;;7.07;;
45848;SDS011;31567;54.600;9.842;2023-02-28T01:30:42;12.23;;;7.55;;
45848;SDS011;31567;54.600;9.842;2023-02-28T01:34:22;12.80;;;7.28;;
45848;SDS011;31567;54.600;9.842;2023-02-28T01:38:01;11.18;;;6.78;;
45848;SDS011;31567;54.600;9.842;2023-02-28T01:41:41;11.55;;;7.15;;
45848;SDS011;31567;54.600;9.842;2023-02-28T01:49:09;11.50;;;7.55;;
45848;SDS011;31567;54.600;9.842;2023-02-28T01:52:54;12.73;;;7.18;;
45848;SDS011;31567;54.600;9.842;2023-02-28T01:56:40;13.07;;;6.60;;
45848;SDS011;31567;54.600;9.842;2023-02-28T02:00:41;9.80;;;7.25;;
45848;SDS011;31567;54.600;9.842;2023-02-28T02:04:22;13.48;;;7.78;;
45848;SDS011;31567;54.600;9.842;2023-02-28T02:08:05;8.02;;;6.50;;
45848;SDS011;31567;54.600;9.842;2023-02-28T02:11:48;13.00;;;8.30;;
45848;SDS011;31567;54.600;9.842;2023-02-28T02:31:22;9.38;;;7.10;;
45848;SDS011;31567;54.600;9.842;2023-02-28T02:35:14;11.10;;;7.18;;
45848;SDS011;31567;54.600;9.842;2023-02-28T02:43:35;10.18;;;7.13;;
45848;SDS011;31567;54.600;9.842;2023-02-28T02:47:26;10.48;;;6.78;;
45848;SDS011;31567;54.600;9.842;2023-02-28T02:51:16;9.88;;;7.22;;
45848;SDS011;31567;54.600;9.842;2023-02-28T02:54:59;15.15;;;7.45;;
45848;SDS011;31567;54.600;9.842;2023-02-28T02:58:41;7.80;;;6.95;;
45848;SDS011;31567;54.600;9.842;2023-02-28T03:02:22;8.48;;;7.22;;
45848;SDS011;31567;54.600;9.842;2023-02-28T03:06:04;9.85;;;7.47;;
45848;SDS011;31567;54.600;9.842;2023-02-28T03:09:51;12.48;;;6.90;;
45848;SDS011;31567;54.600;9.842;2023-02-28T03:17:31;14.40;;;7.80;;
45848;SDS011;31567;54.600;9.842;2023-02-28T03:21:34;10.30;;;7.47;;
45848;SDS011;31567;54.600;9.842;2023-02-28T03:25:33;11.85;;;8.15;;
45848;SDS011;31567;54.600;9.842;2023-02-28T03:29:35;11.52;;;7.97;;
45848;SDS011;31567;54.600;9.842;2023-02-28T03:33:18;11.20;;;7.47;;
45848;SDS011;31567;54.600;9.842;2023-02-28T03:37:09;12.60;;;7.78;;
45848;SDS011;31567;54.600;9.842;2023-02-28T03:41:04;12.98;;;8.43;;
45848;SDS011;31567;54.600;9.842;2023-02-28T03:45:01;8.43;;;7.40;;
45848;SDS011;31567;54.600;9.842;2023-02-28T03:49:21;12.07;;;7.80;;
45848;SDS011;31567;54.600;9.842;2023-02-28T03:53:05;10.93;;;7.45;;
45848;SDS011;31567;54.600;9.842;2023-02-28T03:56:54;11.90;;;7.70;;
45848;SDS011;31567;54.600;9.842;2023-02-28T04:00:43;11.07;;;7.60;;
45848;SDS011;31567;54.600;9.842;2023-02-28T04:04:28;11.20;;;8.23;;
45848;SDS011;31567;54.600;9.842;2023-02-28T04:08:08;9.77;;;7.85;;
45848;SDS011;31567;54.600;9.842;2023-02-28T04:11:51;11.32;;;7.75;;
45848;SDS011;31567;54.600;9.842;2023-02-28T04:15:31;9.75;;;7.78;;
45848;SDS011;31567;54.600;9.842;2023-02-28T04:19:11;10.98;;;8.32;;
45848;SDS011;31567;54.600;9.842;2023-02-28T04:22:52;11.23;;;8.20;;
45848;SDS011;31567;54.600;9.842;2023-02-28T04:26:32;13.80;;;8.52;;
45848;SDS011;31567;54.600;9.842;2023-02-28T04:30:12;11.18;;;8.20;;
45848;SDS011;31567;54.600;9.842;2023-02-28T04:33:52;10.55;;;8.00;;
45848;SDS011;31567;54.600;9.842;2023-02-28T04:37:32;10.88;;;8.30;;
45848;SDS011;31567;54.600;9.842;2023-02-28T04:41:13;12.93;;;8.85;;
45848;SDS011;31567;54.600;9.842;2023-02-28T04:44:53;9.43;;;8.05;;
45848;SDS011;31567;54.600;9.842;2023-02-28T04:48:34;10.90;;;8.88;;
45848;SDS011;31567;54.600;9.842;2023-02-28T04:52:15;12.40;;;8.70;;
45848;SDS011;31567;54.600;9.842;2023-02-28T04:55:55;12.13;;;9.15;;
45848;SDS011;31567;54.600;9.842;2023-02-28T04:59:35;13.18;;;9.63;;
45848;SDS011;31567;54.600;9.842;2023-02-28T05:03:15;11.02;;;9.10;;
45848;SDS011;31567;54.600;9.842;2023-02-28T05:06:54;12.43;;;10.13;;
45848;SDS011;31567;54.600;9.842;2023-02-28T05:10:34;13.32;;;10.70;;
45848;SDS011;31567;54.600;9.842;2023-02-28T05:14:13;15.23;;;10.40;;
45848;SDS011;31567;54.600;9.842;2023-02-28T05:17:53;11.75;;;9.57;;
45848;SDS011;31567;54.600;9.842;2023-02-28T05:21:34;12.30;;;10.23;;
45848;SDS011;31567;54.600;9.842;2023-02-28T05:25:19;12.50;;;10.23;;
45848;SDS011;31567;54.600;9.842;2023-02-28T05:29:01;13.57;;;11.68;;
45848;SDS011;31567;54.600;9.842;2023-02-28T05:32:41;14.90;;;9.70;;
45848;SDS011;31567;54.600;9.842;2023-02-28T05:36:23;11.23;;;10.13;;
45848;SDS011;31567;54.600;9.842;2023-02-28T05:40:06;16.17;;;10.65;;
45848;SDS011;31567;54.600;9.842;2023-02-28T05:43:49;14.48;;;11.55;;
45848;SDS011;31567;54.600;9.842;2023-02-28T05:47:28;13.52;;;10.63;;
45848;SDS011;31567;54.600;9.842;2023-02-28T05:51:08;20.15;;;12.02;;
45848;SDS011;31567;54.600;9.842;2023-02-28T05:54:48;15.70;;;11.68;;
45848;SDS011;31567;54.600;9.842;2023-02-28T05:58:28;15.98;;;11.73;;
45848;SDS011;31567;54.600;9.842;2023-02-28T06:02:13;16.52;;;12.13;;
45848;SDS011;31567;54.600;9.842;2023-02-28T06:05:54;19.15;;;13.45;;
45848;SDS011;31567;54.600;9.842;2023-02-28T06:09:35;15.35;;;12.68;;
45848;SDS011;31567;54.600;9.842;2023-02-28T06:13:15;16.88;;;13.45;;
45848;SDS011;31567;54.600;9.842;2023-02-28T06:16:54;14.85;;;11.43;;
45848;SDS011;31567;54.600;9.842;2023-02-28T06:20:34;17.50;;;13.73;;
45848;SDS011;31567;54.600;9.842;2023-02-28T06:24:15;14.20;;;12.10;;
45848;SDS011;31567;54.600;9.842;2023-02-28T06:27:54;17.42;;;12.10;;
45848;SDS011;31567;54.600;9.842;2023-02-28T06:31:34;13.98;;;12.02;;
45848;SDS011;31567;54.600;9.842;2023-02-28T06:35:14;17.45;;;13.05;;
45848;SDS011;31567;54.600;9.842;2023-02-28T06:38:53;18.00;;;15.07;;
45848;SDS011;31567;54.600;9.842;2023-02-28T06:42:34;18.42;;;15.27;;
45848;SDS011;31567;54.600;9.842;2023-02-28T06:46:14;18.10;;;13.98;;
45848;SDS011;31567;54.600;9.842;2023-02-28T06:49:54;19.55;;;13.90;;
45848;SDS011;31567;54.600;9.842;2023-02-28T06:53:33;22.63;;;14.23;;
45848;SDS011;31567;54.600;9.842;2023-02-28T06:57:13;16.42;;;14.68;;
45848;SDS011;31567;54.600;9.842;2023-02-28T07:00:53;17.35;;;14.55;;
45848;SDS011;31567;54.600;9.842;2023-02-28T07:04:32;18.35;;;15.10;;
45848;SDS011;31567;54.600;9.842;2023-02-28T07:08:12;20.48;;;15.15;;
45848;SDS011;31567;54.600;9.842;2023-02-28T07:11:52;16.45;;;14.70;;
45848;SDS011;31567;54.600;9.842;2023-02-28T07:15:31;16.55;;;14.63;;
45848;SDS011;31567;54.600;9.842;2023-02-28T07:19:11;17.02;;;13.93;;
45848;SDS011;31567;54.600;9.842;2023-02-28T07:22:50;18.52;;;14.35;;
45848;SDS011;31567;54.600;9.842;2023-02-28T07:26:35;15.65;;;12.77;;
45848;SDS011;31567;54.600;9.842;2023-02-28T07:30:14;14.52;;;12.50;;
45848;SDS011;31567;54.600;9.842;2023-02-28T07:33:54;16.67;;;13.20;;
45848;SDS011;31567;54.600;9.842;2023-02-28T07:37:35;15.68;;;12.35;;
45848;SDS011;31567;54.600;9.842;2023-02-28T07:41:16;14.98;;;12.52;;
45848;SDS011;31567;54.600;9.842;2023-02-28T07:44:56;16.85;;;12.93;;
45848;SDS011;31567;54.600;9.842;2023-02-28T07:48:37;16.70;;;12.90;;
45848;SDS011;31567;54.600;9.842;2023-02-28T07:52:17;13.98;;;12.23;;
45848;SDS011;31567;54.600;9.842;2023-02-28T07:55:57;17.23;;;12.70;;
45848;SDS011;31567;54.600;9.842;2023-02-28T07:59:37;15.20;;;12.80;;
45848;SDS011;31567;54.600;9.842;2023-02-28T08:03:17;16.20;;;13.00;;
45848;SDS011;31567;54.600;9.842;2023-02-28T08:06:58;15.95;;;12.27;;
45848;SDS011;31567;54.600;9.842;2023-02-28T08:10:37;15.18;;;12.02;;
45848;SDS011;31567;54.600;9.842;2023-02-28T08:14:17;18.35;;;12.30;;
45848;SDS011;31567;54.600;9.842;2023-02-28T08:17:56;13.70;;;11.45;;
45848;SDS011;31567;54.600;9.842;2023-02-28T08:21:36;13.98;;;11.40;;
45848;SDS011;31567;54.600;9.842;2023-02-28T08:25:15;13.48;;;10.55;;
45848;SDS011;31567;54.600;9.842;2023-02-28T08:28:55;13.70;;;10.63;;
45848;SDS011;31567;54.600;9.842;2023-02-28T08:32:35;15.23;;;11.98;;
45848;SDS011;31567;54.600;9.842;2023-02-28T08:36:14;14.07;;;10.98;;
45848;SDS011;31567;54.600;9.842;2023-02-28T08:39:54;12.35;;;11.02;;
45848;SDS011;31567;54.600;9.842;2023-02-28T08:43:34;17.58;;;11.20;;
45848;SDS011;31567;54.600;9.842;2023-02-28T08:47:14;15.40;;;11.50;;
45848;SDS011;31567;54.600;9.842;2023-02-28T08:50:55;14.55;;;11.95;;
45848;SDS011;31567;54.600;9.842;2023-02-28T08:54:38;14.63;;;11.43;;
45848;SDS011;31567;54.600;9.842;2023-02-28T08:58:18;15.18;;;11.38;;
45848;SDS011;31567;54.600;9.842;2023-02-28T09:01:58;12.98;;;10.43;;
45848;SDS011;31567;54.600;9.842;2023-02-28T09:05:37;13.27;;;10.30;;
45848;SDS011;31567;54.600;9.842;2023-02-28T09:09:17;13.05;;;10.95;;
45848;SDS011;31567;54.600;9.842;2023-02-28T09:12:56;15.23;;;10.80;;
45848;SDS011;31567;54.600;9.842;2023-02-28T09:16:36;12.70;;;9.50;;
45848;SDS011;31567;54.600;9.842;2023-02-28T09:20:16;12.48;;;9.73;;
45848;SDS011;31567;54.600;9.842;2023-02-28T09:23:55;17.77;;;10.90;;
45848;SDS011;31567;54.600;9.842;2023-02-28T09:27:35;15.88;;;8.80;;
45848;SDS011;31567;54.600;9.842;2023-02-28T09:31:17;10.75;;;8.27;;
45848;SDS011;31567;54.600;9.842;2023-02-28T09:35:01;12.85;;;9.27;;
45848;SDS011;31567;54.600;9.842;2023-02-28T09:38:40;13.50;;;10.10;;
45848;SDS011;31567;54.600;9.842;2023-02-28T09:42:22;13.65;;;10.00;;
45848;SDS011;31567;54.600;9.842;2023-02-28T09:46:21;13.35;;;9.63;;
45848;SDS011;31567;54.600;9.842;2023-02-28T09:50:22;12.05;;;9.55;;
45848;SDS011;31567;54.600;9.842;2023-02-28T09:54:40;12.02;;;8.85;;
45848;SDS011;31567;54.600;9.842;2023-02-28T10:02:19;11.77;;;8.48;;
45848;SDS011;31567;54.600;9.842;2023-02-28T10:09:51;11.68;;;8.63;;
45848;SDS011;31567;54.600;9.842;2023-02-28T10:17:25;11.93;;;9.35;;
45848;SDS011;31567;54.600;9.842;2023-02-28T10:21:31;14.93;;;9.82;;
45848;SDS011;31567;54.600;9.842;2023-02-28T10:25:17;11.27;;;8.50;;
45848;SDS011;31567;54.600;9.842;2023-02-28T10:29:00;14.05;;;8.80;;
45848;SDS011;31567;54.600;9.842;2023-02-28T10:32:40;14.30;;;9.02;;
45848;SDS011;31567;54.600;9.842;2023-02-28T10:51:43;13.88;;;9.07;;
45848;SDS011;31567;54.600;9.842;2023-02-28T10:55:24;10.07;;;7.93;;
45848;SDS011;31567;54.600;9.842;2023-02-28T11:02:47;9.43;;;7.25;;
45848;SDS011;31567;54.600;9.842;2023-02-28T11:06:31;10.13;;;7.60;;
45848;SDS011;31567;54.600;9.842;2023-02-28T11:10:17;9.80;;;7.75;;
45848;SDS011;31567;54.600;9.842;2023-02-28T11:14:04;8.90;;;7.57;;
45848;SDS011;31567;54.600;9.842;2023-02-28T11:17:44;12.50;;;7.68;;
45848;SDS011;31567;54.600;9.842;2023-02-28T11:21:33;10.85;;;7.57;;
45848;SDS011;31567;54.600;9.842;2023-02-28T11:25:20;9.57;;;7.60;;
45848;SDS011;31567;54.600;9.842;2023-02-28T11:29:08;11.82;;;7.43;;
45848;SDS011;31567;54.600;9.842;2023-02-28T11:37:01;13.10;;;7.85;;
45848;SDS011;31567;54.600;9.842;2023-02-28T11:48:52;7.35;;;5.78;;
45848;SDS011;31567;54.600;9.842;2023-02-28T11:52:49;8.35;;;7.00;;
45848;SDS011;31567;54.600;9.842;2023-02-28T11:56:37;9.02;;;6.05;;
45848;SDS011;31567;54.600;9.842;2023-02-28T12:08:39;9.13;;;6.53;;
45848;SDS011;31567;54.600;9.842;2023-02-28T12:16:14;7.88;;;5.85;;
45848;SDS011;31567;54.600;9.842;2023-02-28T12:24:08;9.55;;;6.25;;
45848;SDS011;31567;54.600;9.842;2023-02-28T12:27:54;6.70;;;5.43;;
45848;SDS011;31567;54.600;9.842;2023-02-28T12:31:35;5.95;;;5.22;;
45848;SDS011;31567;54.600;9.842;2023-02-28T12:35:22;6.97;;;5.45;;
45848;SDS011;31567;54.600;9.842;2023-02-28T12:39:11;6.85;;;5.25;;
45848;SDS011;31567;54.600;9.842;2023-02-28T12:42:56;6.43;;;5.40;;
45848;SDS011;31567;54.600;9.842;2023-02-28T12:46:44;6.65;;;5.15;;
45848;SDS011;31567;54.600;9.842;2023-02-28T12:50:27;7.22;;;5.07;;
45848;SDS011;31567;54.600;9.842;2023-02-28T13:02:01;7.38;;;5.63;;
45848;SDS011;31567;54.600;9.842;2023-02-28T13:10:16;6.28;;;5.68;;
45848;SDS011;31567;54.600;9.842;2023-02-28T13:14:02;7.60;;;5.93;;
45848;SDS011;31567;54.600;9.842;2023-02-28T13:17:43;8.07;;;5.65;;
45848;SDS011;31567;54.600;9.842;2023-02-28T13:21:28;6.43;;;5.75;;
45848;SDS011;31567;54.600;9.842;2023-02-28T13:29:01;6.63;;;5.93;;
45848;SDS011;31567;54.600;9.842;2023-02-28T13:40:56;6.72;;;6.03;;
45848;SDS011;31567;54.600;9.842;2023-02-28T13:48:44;6.97;;;5.20;;
45848;SDS011;31567;54.600;9.842;2023-02-28T13:52:24;6.00;;;5.40;;
45848;SDS011;31567;54.600;9.842;2023-02-28T14:00:06;6.68;;;5.75;;
45848;SDS011;31567;54.600;9.842;2023-02-28T14:08:20;8.40;;;5.80;;
45848;SDS011;31567;54.600;9.842;2023-02-28T14:16:23;7.32;;;6.25;;
45848;SDS011;31567;54.600;9.842;2023-02-28T14:20:05;6.05;;;5.45;;
45848;SDS011;31567;54.600;9.842;2023-02-28T14:27:42;8.98;;;6.40;;
45848;SDS011;31567;54.600;9.842;2023-02-28T14:31:35;7.70;;;5.93;;
45848;SDS011;31567;54.600;9.842;2023-02-28T14:39:35;7.65;;;6.45;;
45848;SDS011;31567;54.600;9.842;2023-02-28T14:43:23;7.07;;;6.45;;
45848;SDS011;31567;54.600;9.842;2023-02-28T14:47:04;7.70;;;6.82;;
45848;SDS011;31567;54.600;9.842;2023-02-28T14:50:56;6.97;;;6.38;;
45848;SDS011;31567;54.600;9.842;2023-02-28T14:54:38;7.45;;;6.75;;
45848;SDS011;31567;54.600;9.842;2023-02-28T14:58:25;6.60;;;5.97;;
45848;SDS011;31567;54.600;9.842;2023-02-28T15:02:16;6.90;;;6.22;;
45848;SDS011;31567;54.600;9.842;2023-02-28T15:05:58;7.20;;;6.50;;
45848;SDS011;31567;54.600;9.842;2023-02-28T15:14:06;8.77;;;6.15;;
45848;SDS011;31567;54.600;9.842;2023-02-28T15:17:48;7.53;;;6.65;;
45848;SDS011;31567;54.600;9.842;2023-02-28T15:21:37;8.68;;;6.03;;
45848;SDS011;31567;54.600;9.842;2023-02-28T15:25:21;7.25;;;6.20;;
45848;SDS011;31567;54.600;9.842;2023-02-28T15:29:05;10.75;;;6.55;;
45848;SDS011;31567;54.600;9.842;2023-02-28T15:33:02;7.63;;;6.07;;
45848;SDS011;31567;54.600;9.842;2023-02-28T15:36:42;7.65;;;6.70;;
45848;SDS011;31567;54.600;9.842;2023-02-28T15:44:14;8.38;;;7.20;;
45848;SDS011;31567;54.600;9.842;2023-02-28T15:48:09;8.40;;;6.57;;
45848;SDS011;31567;54.600;9.842;2023-02-28T15:51:56;9.65;;;7.65;;
45848;SDS011;31567;54.600;9.842;2023-02-28T15:55:38;8.43;;;6.68;;
45848;SDS011;31567;54.600;9.842;2023-02-28T15:59:23;7.80;;;6.88;;
45848;SDS011;31567;54.600;9.842;2023-02-28T16:03:25;8.48;;;7.13;;
45848;SDS011;31567;54.600;9.842;2023-02-28T16:07:16;7.95;;;6.28;;
45848;SDS011;31567;54.600;9.842;2023-02-28T16:10:56;8.98;;;7.00;;
45848;SDS011;31567;54.600;9.842;2023-02-28T16:14:35;7.20;;;6.50;;
45848;SDS011;31567;54.600;9.842;2023-02-28T16:18:17;7.45;;;6.82;;
45848;SDS011;31567;54.600;9.842;2023-02-28T16:21:57;8.30;;;6.60;;
45848;SDS011;31567;54.600;9.842;2023-02-28T16:25:37;9.23;;;7.63;;
45848;SDS011;31567;54.600;9.842;2023-02-28T16:29:22;7.30;;;6.30;;
45848;SDS011;31567;54.600;9.842;2023-02-28T16:33:07;6.35;;;5.75;;
45848;SDS011;31567;54.600;9.842;2023-02-28T16:36:47;8.23;;;6.30;;
45848;SDS011;31567;54.600;9.842;2023-02-28T16:40:28;7.88;;;6.88;;
45848;SDS011;31567;54.600;9.842;2023-02-28T16:44:26;9.27;;;7.00;;
45848;SDS011;31567;54.600;9.842;2023-02-28T16:48:15;12.30;;;9.13;;
45848;SDS011;31567;54.600;9.842;2023-02-28T16:51:55;14.25;;;10.02;;
45848;SDS011;31567;54.600;9.842;2023-02-28T16:55:35;12.10;;;8.55;;
45848;SDS011;31567;54.600;9.842;2023-02-28T16:59:17;11.40;;;8.57;;
45848;SDS011;31567;54.600;9.842;2023-02-28T17:03:00;10.05;;;8.38;;
45848;SDS011;31567;54.600;9.842;2023-02-28T17:06:41;10.43;;;8.10;;
45848;SDS011;31567;54.600;9.842;2023-02-28T17:10:22;10.18;;;8.00;;
45848;SDS011;31567;54.600;9.842;2023-02-28T17:14:03;10.98;;;8.05;;
45848;SDS011;31567;54.600;9.842;2023-02-28T17:17:43;13.73;;;8.60;;
45848;SDS011;31567;54.600;9.842;2023-02-28T17:21:24;10.02;;;8.60;;
45848;SDS011;31567;54.600;9.842;2023-02-28T17:25:04;10.82;;;8.52;;
45848;SDS011;31567;54.600;9.842;2023-02-28T17:28:44;9.68;;;8.38;;
45848;SDS011;31567;54.600;9.842;2023-02-28T17:32:23;10.98;;;8.27;;
45848;SDS011;31567;54.600;9.842;2023-02-28T17:36:03;10.15;;;8.77;;
45848;SDS011;31567;54.600;9.842;2023-02-28T17:39:43;12.15;;;9.90;;
45848;SDS011;31567;54.600;9.842;2023-02-28T17:43:24;13.55;;;9.27;;
45848;SDS011;31567;54.600;9.842;2023-02-28T17:47:04;10.85;;;8.45;;
45848;SDS011;31567;54.600;9.842;2023-02-28T17:50:43;10.43;;;8.40;;
45848;SDS011;31567;54.600;9.842;2023-02-28T17:54:23;11.57;;;9.20;;
45848;SDS011;31567;54.600;9.842;2023-02-28T17:58:02;12.40;;;8.77;;
45848;SDS011;31567;54.600;9.842;2023-02-28T18:01:42;13.20;;;9.68;;
45848;SDS011;31567;54.600;9.842;2023-02-28T18:05:22;13.32;;;8.85;;
45848;SDS011;31567;54.600;9.842;2023-02-28T18:09:01;11.90;;;8.77;;
45848;SDS011;31567;54.600;9.842;2023-02-28T18:12:41;13.88;;;9.55;;
45848;SDS011;31567;54.600;9.842;2023-02-28T18:16:21;15.75;;;10.32;;
45848;SDS011;31567;54.600;9.842;2023-02-28T18:20:01;12.77;;;10.70;;
45848;SDS011;31567;54.600;9.842;2023-02-28T18:23:42;14.02;;;10.55;;
45848;SDS011;31567;54.600;9.842;2023-02-28T18:27:29;14.48;;;10.30;;
45848;SDS011;31567;54.600;9.842;2023-02-28T18:31:13;12.27;;;10.30;;
45848;SDS011;31567;54.600;9.842;2023-02-28T18:34:55;15.10;;;10.05;;
45848;SDS011;31567;54.600;9.842;2023-02-28T18:38:34;14.65;;;10.30;;
45848;SDS011;31567;54.600;9.842;2023-02-28T18:42:14;11.90;;;10.13;;
45848;SDS011;31567;54.600;9.842;2023-02-28T18:45:54;14.00;;;10.98;;
45848;SDS011;31567;54.600;9.842;2023-02-28T18:49:34;15.82;;;11.70;;
45848;SDS011;31567;54.600;9.842;2023-02-28T18:53:16;17.42;;;13.18;;
45848;SDS011;31567;54.600;9.842;2023-02-28T18:56:56;18.23;;;14.13;;
45848;SDS011;31567;54.600;9.842;2023-02-28T19:00:36;19.80;;;14.57;;
45848;SDS011;31567;54.600;9.842;2023-02-28T19:04:16;17.98;;;13.00;;
45848;SDS011;31567;54.600;9.842;2023-02-28T19:07:56;16.92;;;13.30;;
45848;SDS011;31567;54.600;9.842;2023-02-28T19:11:35;14.32;;;12.30;;
45848;SDS011;31567;54.600;9.842;2023-02-28T19:15:15;16.63;;;12.50;;
45848;SDS011;31567;54.600;9.842;2023-02-28T19:18:55;16.60;;;12.60;;
45848;SDS011;31567;54.600;9.842;2023-02-28T19:22:35;17.45;;;12.38;;
45848;SDS011;31567;54.600;9.842;2023-02-28T19:26:16;16.08;;;12.50;;
45848;SDS011;31567;54.600;9.842;2023-02-28T19:29:58;18.05;;;12.63;;
45848;SDS011;31567;54.600;9.842;2023-02-28T19:33:37;18.65;;;12.80;;
45848;SDS011;31567;54.600;9.842;2023-02-28T19:37:17;20.08;;;12.70;;
45848;SDS011;31567;54.600;9.842;2023-02-28T19:41:00;18.20;;;13.43;;
45848;SDS011;31567;54.600;9.842;2023-02-28T19:44:44;19.50;;;12.50;;
45848;SDS011;31567;54.600;9.842;2023-02-28T19:48:24;17.85;;;12.70;;
45848;SDS011;31567;54.600;9.842;2023-02-28T19:52:06;16.35;;;13.07;;
45848;SDS011;31567;54.600;9.842;2023-02-28T19:55:45;16.38;;;13.43;;
45848;SDS011;31567;54.600;9.842;2023-02-28T19:59:29;18.95;;;14.27;;
45848;SDS011;31567;54.600;9.842;2023-02-28T20:03:08;16.55;;;14.15;;
45848;SDS011;31567;54.600;9.842;2023-02-28T20:06:48;19.25;;;13.75;;
45848;SDS011;31567;54.600;9.842;2023-02-28T20:10:28;17.73;;;13.20;;
45848;SDS011;31567;54.600;9.842;2023-02-28T20:14:09;19.02;;;13.95;;
45848;SDS011;31567;54.600;9.842;2023-02-28T20:17:51;21.20;;;14.20;;
45848;SDS011;31567;54.600;9.842;2023-02-28T20:21:31;21.98;;;14.10;;
45848;SDS011;31567;54.600;9.842;2023-02-28T20:25:10;19.33;;;14.18;;
45848;SDS011;31567;54.600;9.842;2023-02-28T20:28:50;20.10;;;14.30;;
45848;SDS011;31567;54.600;9.842;2023-02-28T20:32:29;20.23;;;13.95;;
45848;SDS011;31567;54.600;9.842;2023-02-28T20:36:09;21.15;;;14.38;;
45848;SDS011;31567;54.600;9.842;2023-02-28T20:39:49;22.88;;;14.73;;
45848;SDS011;31567;54.600;9.842;2023-02-28T20:43:30;20.70;;;14.35;;
45848;SDS011;31567;54.600;9.842;2023-02-28T20:47:10;21.77;;;13.98;;
45848;SDS011;31567;54.600;9.842;2023-02-28T20:50:50;23.85;;;14.70;;
45848;SDS011;31567;54.600;9.842;2023-02-28T20:54:31;23.50;;;15.38;;
45848;SDS011;31567;54.600;9.842;2023-02-28T20:58:13;21.80;;;15.25;;
45848;SDS011;31567;54.600;9.842;2023-02-28T21:01:53;24.63;;;15.07;;
45848;SDS011;31567;54.600;9.842;2023-02-28T21:05:34;20.48;;;15.35;;
45848;SDS011;31567;54.600;9.842;2023-02-28T21:09:13;21.52;;;15.27;;
45848;SDS011;31567;54.600;9.842;2023-02-28T21:12:53;25.73;;;15.35;;
45848;SDS011;31567;54.600;9.842;2023-02-28T21:16:35;25.10;;;16.10;;
45848;SDS011;31567;54.600;9.842;2023-02-28T21:20:15;27.13;;;15.25;;
45848;SDS011;31567;54.600;9.842;2023-02-28T21:23:59;27.35;;;17.52;;
45848;SDS011;31567;54.600;9.842;2023-02-28T21:27:40;23.40;;;16.02;;
45848;SDS011;31567;54.600;9.842;2023-02-28T21:31:21;27.27;;;15.75;;
45848;SDS011;31567;54.600;9.842;2023-02-28T21:35:02;26.30;;;16.35;;
45848;SDS011;31567;54.600;9.842;2023-02-28T21:38:42;30.77;;;17.85;;
45848;SDS011;31567;54.600;9.842;2023-02-28T21:42:23;25.02;;;16.65;;
45848;SDS011;31567;54.600;9.842;2023-02-28T21:46:04;26.45;;;17.42;;
45848;SDS011;31567;54.600;9.842;2023-02-28T21:49:49;30.15;;;17.48;;
45848;SDS011;31567;54.600;9.842;2023-02-28T21:53:29;29.95;;;17.63;;
45848;SDS011;31567;54.600;9.842;2023-02-28T21:57:10;25.30;;;17.13;;
45848;SDS011;31567;54.600;9.842;2023-02-28T22:00:51;27.95;;;17.77;;
45848;SDS011;31567;54.600;9.842;2023-02-28T22:04:31;27.58;;;18.00;;
45848;SDS011;31567;54.600;9.842;2023-02-28T22:08:10;26.35;;;16.85;;
45848;SDS011;31567;54.600;9.842;2023-02-28T22:11:50;30.95;;;18.23;;
45848;SDS011;31567;54.600;9.842;2023-02-28T22:15:30;30.83;;;18.40;;
45848;SDS011;31567;54.600;9.842;2023-02-28T22:19:09;31.60;;;18.58;;
45848;SDS011;31567;54.600;9.842;2023-02-28T22:22:50;26.90;;;18.42;;
45848;SDS011;31567;54.600;9.842;2023-02-28T22:26:29;27.02;;;17.50;;
45848;SDS011;31567;54.600;9.842;2023-02-28T22:30:10;29.48;;;18.25;;
45848;SDS011;31567;54.600;9.842;2023-02-28T22:33:50;28.17;;;17.75;;
45848;SDS011;31567;54.600;9.842;2023-02-28T22:37:32;37.35;;;19.63;;
45848;SDS011;31567;54.600;9.842;2023-02-28T22:41:12;28.83;;;18.13;;
45848;SDS011;31567;54.600;9.842;2023-02-28T22:44:52;29.10;;;17.48;;
45848;SDS011;31567;54.600;9.842;2023-02-28T22:48:33;33.80;;;18.85;;
45848;SDS011;31567;54.600;9.842;2023-02-28T22:52:13;35.30;;;19.25;;
45848;SDS011;31567;54.600;9.842;2023-02-28T22:55:53;32.03;;;19.08;;
45848;SDS011;31567;54.600;9.842;2023-02-28T22:59:33;30.63;;;19.15;;
45848;SDS011;31567;54.600;9.842;2023-02-28T23:03:13;38.03;;;19.52;;
45848;SDS011;31567;54.600;9.842;2023-02-28T23:06:53;37.38;;;20.88;;
45848;SDS011;31567;54.600;9.842;2023-02-28T23:10:32;31.35;;;18.77;;
45848;SDS011;31567;54.600;9.842;2023-02-28T23:14:12;32.38;;;18.55;;
45848;SDS011;31567;54.600;9.842;2023-02-28T23:17:53;36.03;;;19.63;;
45848;SDS011;31567;54.600;9.842;2023-02-28T23:21:33;33.20;;;19.35;;
45848;SDS011;31567;54.600;9.842;2023-02-28T23:25:13;44.38;;;19.00;;
45848;SDS011;31567;54.600;9.842;2023-02-28T23:28:53;38.65;;;21.02;;
45848;SDS011;31567;54.600;9.842;2023-02-28T23:32:32;33.97;;;19.45;;
45848;SDS011;31567;54.600;9.842;2023-02-28T23:36:13;34.65;;;19.35;;
45848;SDS011;31567;54.600;9.842;2023-02-28T23:39:53;37.10;;;19.92;;
45848;SDS011;31567;54.600;9.842;2023-02-28T23:43:33;32.28;;;19.30;;
45848;SDS011;31567;54.600;9.842;2023-02-28T23:47:14;33.55;;;19.58;;
45848;SDS011;31567;54.600;9.842;2023-02-28T23:50:58;33.25;;;19.95;;
45848;SDS011;31567;54.600;9.842;2023-02-28T23:54:39;35.38;;;20.60;;
45848;SDS011;31567;54.600;9.842;2023-02-28T23:58:19;36.80;;;21.27;;
